createdAt,value
2017-01-07T00:00:23.854Z,0
2017-01-07T00:01:24.250Z,0
2017-01-07T00:02:24.250Z,0
2017-01-07T00:03:24.242Z,0
2017-01-07T00:04:24.242Z,0
2017-01-07T00:05:23.826Z,0
2017-01-07T00:06:23.818Z,0
2017-01-07T00:07:23.818Z,0
2017-01-07T00:08:24.218Z,0
2017-01-07T00:09:23.402Z,0
2017-01-07T00:10:23.798Z,0
2017-01-07T00:11:24.203Z,0
2017-01-07T00:12:23.374Z,0
2017-01-07T00:13:23.366Z,0
2017-01-07T00:14:23.370Z,0
2017-01-07T00:15:23.778Z,0
2017-01-07T00:16:24.175Z,0
2017-01-07T00:17:23.342Z,0
2017-01-07T00:18:23.758Z,0
2017-01-07T00:19:23.339Z,0
2017-01-07T00:20:23.335Z,0
2017-01-07T00:21:23.727Z,0
2017-01-07T00:22:23.327Z,0
2017-01-07T00:23:23.307Z,0
2017-01-07T00:24:23.723Z,0
2017-01-07T00:25:23.299Z,0
2017-01-07T00:26:24.119Z,0
2017-01-07T00:27:23.699Z,0
2017-01-07T00:28:23.691Z,0
2017-01-07T00:29:23.691Z,0
2017-01-07T00:30:24.099Z,0
2017-01-07T00:31:23.267Z,0
2017-01-07T00:32:23.667Z,0
2017-01-07T00:33:23.671Z,0
2017-01-07T00:34:23.659Z,0
2017-01-07T00:35:24.075Z,0
2017-01-07T00:36:23.243Z,0
2017-01-07T00:37:23.663Z,0
2017-01-07T00:38:23.227Z,0
2017-01-07T00:39:23.639Z,0
2017-01-07T00:40:23.211Z,0
2017-01-07T00:41:23.627Z,0
2017-01-07T00:42:24.336Z,0
2017-01-07T00:43:23.200Z,0
2017-01-07T00:44:23.611Z,0
2017-01-07T00:45:23.603Z,0
2017-01-07T00:46:23.623Z,0
2017-01-07T00:47:24.027Z,0
2017-01-07T00:48:23.171Z,0
2017-01-07T00:49:23.990Z,0
2017-01-07T00:50:23.169Z,0
2017-01-07T00:51:23.570Z,0
2017-01-07T00:52:23.562Z,0
2017-01-07T00:53:23.394Z,0
2017-01-07T00:54:23.146Z,0
2017-01-07T00:55:23.550Z,0
2017-01-07T00:56:23.981Z,0
2017-01-07T00:57:23.945Z,0
2017-01-07T00:58:23.273Z,0
2017-01-07T00:59:23.529Z,0
2017-01-07T01:00:23.521Z,0
2017-01-07T01:01:23.925Z,0
2017-01-07T01:02:23.505Z,0
2017-01-07T01:03:23.194Z,0
2017-01-07T01:04:23.497Z,0
2017-01-07T01:05:23.496Z,0
2017-01-07T01:06:23.477Z,0
2017-01-07T01:07:23.480Z,0
2017-01-07T01:08:23.217Z,0
2017-01-07T01:09:23.461Z,0
2017-01-07T01:10:23.061Z,0
2017-01-07T01:11:23.049Z,0
2017-01-07T01:12:23.449Z,0
2017-01-07T01:13:23.185Z,0
2017-01-07T01:14:23.852Z,0
2017-01-07T01:15:23.441Z,0
2017-01-07T01:16:23.017Z,0
2017-01-07T01:17:23.416Z,0
2017-01-07T01:18:23.005Z,0
2017-01-07T01:19:23.005Z,0
2017-01-07T01:20:23.396Z,0
2017-01-07T01:21:23.409Z,0
2017-01-07T01:22:23.804Z,0
2017-01-07T01:23:23.800Z,0
2017-01-07T01:24:23.788Z,0
2017-01-07T01:25:23.380Z,0
2017-01-07T01:26:23.360Z,0
2017-01-07T01:27:23.772Z,0
2017-01-07T01:28:23.364Z,0
2017-01-07T01:29:23.356Z,0
2017-01-07T01:30:22.940Z,0
2017-01-07T01:31:23.340Z,0
2017-01-07T01:32:22.924Z,0
2017-01-07T01:33:23.336Z,0
2017-01-07T01:34:23.340Z,0
2017-01-07T01:35:22.916Z,0
2017-01-07T01:36:23.720Z,0
2017-01-07T01:37:23.320Z,0
2017-01-07T01:38:23.716Z,0
2017-01-07T01:39:23.296Z,0
2017-01-07T01:40:23.284Z,0
2017-01-07T01:41:23.292Z,0
2017-01-07T01:42:23.279Z,0
2017-01-07T01:43:23.287Z,0
2017-01-07T01:44:22.855Z,0
2017-01-07T01:45:23.271Z,0
2017-01-07T01:46:23.675Z,0
2017-01-07T01:47:23.254Z,0
2017-01-07T01:48:23.239Z,0
2017-01-07T01:49:23.247Z,0
2017-01-07T01:50:23.651Z,0
2017-01-07T01:51:22.819Z,0
2017-01-07T01:52:22.818Z,0
2017-01-07T01:53:23.212Z,0
2017-01-07T01:54:23.627Z,0
2017-01-07T01:55:22.807Z,0
2017-01-07T01:56:22.811Z,0
2017-01-07T01:57:23.211Z,0
2017-01-07T01:58:23.595Z,0
2017-01-07T01:59:23.191Z,0
2017-01-07T02:00:23.591Z,0
2017-01-07T02:01:22.763Z,0
2017-01-07T02:02:23.583Z,0
2017-01-07T02:03:22.747Z,0
2017-01-07T02:04:23.571Z,0
2017-01-07T02:05:22.731Z,0
2017-01-07T02:06:23.155Z,0
2017-01-07T02:07:22.731Z,0
2017-01-07T02:08:23.145Z,0
2017-01-07T02:09:23.127Z,0
2017-01-07T02:10:23.119Z,0
2017-01-07T02:11:23.119Z,0
2017-01-07T02:12:23.123Z,0
2017-01-07T02:13:23.115Z,0
2017-01-07T02:14:23.115Z,0
2017-01-07T02:15:22.684Z,0
2017-01-07T02:16:23.095Z,0
2017-01-07T02:17:23.503Z,0
2017-01-07T02:18:22.667Z,0
2017-01-07T02:19:22.657Z,0
2017-01-07T02:20:23.063Z,0
2017-01-07T02:21:23.475Z,0
2017-01-07T02:22:23.059Z,0
2017-01-07T02:23:23.064Z,0
2017-01-07T02:24:23.047Z,0
2017-01-07T02:25:23.039Z,0
2017-01-07T02:26:23.043Z,0
2017-01-07T02:27:23.035Z,0
2017-01-07T02:28:23.439Z,0
2017-01-07T02:29:23.023Z,0
2017-01-07T02:30:23.431Z,0
2017-01-07T02:31:23.431Z,0
2017-01-07T02:32:23.011Z,0
2017-01-07T02:33:22.579Z,0
2017-01-07T02:34:22.999Z,0
2017-01-07T02:35:22.579Z,0
2017-01-07T02:36:23.011Z,0
2017-01-07T02:37:22.563Z,0
2017-01-07T02:38:22.971Z,0
2017-01-07T02:39:23.375Z,0
2017-01-07T02:40:23.377Z,0
2017-01-07T02:41:22.543Z,0
2017-01-07T02:42:23.367Z,0
2017-01-07T02:43:22.939Z,0
2017-01-07T02:44:22.943Z,0
2017-01-07T02:45:22.519Z,0
2017-01-07T02:46:22.517Z,0
2017-01-07T02:47:22.919Z,0
2017-01-07T02:48:22.919Z,0
2017-01-07T02:49:23.315Z,0
2017-01-07T02:50:22.903Z,0
2017-01-07T02:51:22.891Z,0
2017-01-07T02:52:23.307Z,0
2017-01-07T02:53:22.891Z,0
2017-01-07T02:54:22.875Z,0
2017-01-07T02:55:22.871Z,0
2017-01-07T02:56:22.874Z,0
2017-01-07T02:57:22.875Z,0
2017-01-07T02:58:23.267Z,0
2017-01-07T02:59:22.043Z,0
2017-01-07T03:00:22.847Z,0
2017-01-07T03:01:22.435Z,0
2017-01-07T03:02:23.242Z,0
2017-01-07T03:03:22.831Z,0
2017-01-07T03:04:22.828Z,0
2017-01-07T03:05:22.827Z,0
2017-01-07T03:06:22.407Z,0
2017-01-07T03:07:22.813Z,0
2017-01-07T03:08:22.399Z,0
2017-01-07T03:09:22.385Z,0
2017-01-07T03:10:22.395Z,0
2017-01-07T03:11:22.791Z,0
2017-01-07T03:12:22.783Z,0
2017-01-07T03:13:22.372Z,0
2017-01-07T03:14:22.775Z,0
2017-01-07T03:15:22.767Z,0
2017-01-07T03:16:22.763Z,0
2017-01-07T03:17:22.752Z,0
2017-01-07T03:18:22.752Z,0
2017-01-07T03:19:22.340Z,0
2017-01-07T03:20:22.736Z,0
2017-01-07T03:21:22.744Z,0
2017-01-07T03:22:22.736Z,0
2017-01-07T03:23:22.724Z,0
2017-01-07T03:24:22.304Z,0
2017-01-07T03:25:22.713Z,0
2017-01-07T03:26:22.292Z,0
2017-01-07T03:27:22.704Z,0
2017-01-07T03:28:22.700Z,0
2017-01-07T03:29:22.700Z,0
2017-01-07T03:30:22.684Z,0
2017-01-07T03:31:22.276Z,0
2017-01-07T03:32:22.676Z,0
2017-01-07T03:33:22.667Z,0
2017-01-07T03:34:22.665Z,0
2017-01-07T03:35:22.253Z,0
2017-01-07T03:36:23.065Z,0
2017-01-07T03:37:22.652Z,0
2017-01-07T03:38:22.640Z,0
2017-01-07T03:39:22.637Z,0
2017-01-07T03:40:22.229Z,0
2017-01-07T03:41:22.625Z,0
2017-01-07T03:42:22.209Z,0
2017-01-07T03:43:22.210Z,0
2017-01-07T03:44:23.022Z,0
2017-01-07T03:45:23.022Z,0
2017-01-07T03:46:22.594Z,0
2017-01-07T03:47:22.598Z,0
2017-01-07T03:48:22.998Z,0
2017-01-07T03:49:22.586Z,0
2017-01-07T03:50:22.994Z,0
2017-01-07T03:51:22.577Z,0
2017-01-07T03:52:22.571Z,0
2017-01-07T03:53:22.563Z,0
2017-01-07T03:54:22.159Z,0
2017-01-07T03:55:22.555Z,0
2017-01-07T03:56:22.547Z,0
2017-01-07T03:57:22.543Z,0
2017-01-07T03:58:22.127Z,0
2017-01-07T03:59:22.531Z,0
2017-01-07T04:00:22.532Z,0
2017-01-07T04:01:22.520Z,0
2017-01-07T04:02:22.516Z,0
2017-01-07T04:03:22.528Z,0
2017-01-07T04:04:22.909Z,0
2017-01-07T04:05:22.500Z,0
2017-01-07T04:06:22.500Z,0
2017-01-07T04:07:22.489Z,0
2017-01-07T04:08:22.489Z,0
2017-01-07T04:09:22.069Z,0
2017-01-07T04:10:22.073Z,0
2017-01-07T04:11:22.061Z,0
2017-01-07T04:12:22.877Z,0
2017-01-07T04:13:22.462Z,0
2017-01-07T04:14:22.449Z,0
2017-01-07T04:15:22.458Z,0
2017-01-07T04:16:22.438Z,0
2017-01-07T04:17:22.026Z,0
2017-01-07T04:18:22.438Z,0
2017-01-07T04:19:22.838Z,0
2017-01-07T04:20:22.426Z,0
2017-01-07T04:21:22.422Z,0
2017-01-07T04:22:22.823Z,0
2017-01-07T04:23:21.583Z,0
2017-01-07T04:24:22.410Z,0
2017-01-07T04:25:22.398Z,0
2017-01-07T04:26:22.419Z,0
2017-01-07T04:27:21.975Z,0
2017-01-07T04:28:21.967Z,0
2017-01-07T04:29:22.371Z,0
2017-01-07T04:30:22.356Z,0
2017-01-07T04:31:21.955Z,0
2017-01-07T04:32:22.356Z,0
2017-01-07T04:33:22.347Z,0
2017-01-07T04:34:22.356Z,0
2017-01-07T04:35:22.760Z,0
2017-01-07T04:36:22.348Z,0
2017-01-07T04:37:22.336Z,0
2017-01-07T04:38:22.744Z,0
2017-01-07T04:39:22.332Z,0
2017-01-07T04:40:21.908Z,0
2017-01-07T04:41:21.889Z,0
2017-01-07T04:42:22.301Z,0
2017-01-07T04:43:22.709Z,0
2017-01-07T04:44:22.693Z,0
2017-01-07T04:45:22.705Z,0
2017-01-07T04:46:22.305Z,0
2017-01-07T04:47:22.281Z,0
2017-01-07T04:48:22.281Z,0
2017-01-07T04:49:21.858Z,0
2017-01-07T04:50:22.269Z,0
2017-01-07T04:51:22.253Z,0
2017-01-07T04:52:22.250Z,0
2017-01-07T04:53:22.662Z,0
2017-01-07T04:54:22.242Z,0
2017-01-07T04:55:22.658Z,0
2017-01-07T04:56:22.646Z,0
2017-01-07T04:57:22.634Z,0
2017-01-07T04:58:22.223Z,0
2017-01-07T04:59:22.215Z,0
2017-01-07T05:00:22.627Z,0
2017-01-07T05:01:21.795Z,0
2017-01-07T05:02:22.199Z,0
2017-01-07T05:03:22.199Z,0
2017-01-07T05:04:21.772Z,0
2017-01-07T05:05:22.183Z,0
2017-01-07T05:06:22.584Z,0
2017-01-07T05:07:22.200Z,0
2017-01-07T05:08:22.172Z,0
2017-01-07T05:09:22.583Z,0
2017-01-07T05:10:21.748Z,0
2017-01-07T05:11:22.156Z,0
2017-01-07T05:12:22.564Z,0
2017-01-07T05:13:21.732Z,0
2017-01-07T05:14:22.136Z,0
2017-01-07T05:15:22.148Z,0
2017-01-07T05:16:22.128Z,0
2017-01-07T05:17:21.304Z,0
2017-01-07T05:18:22.126Z,0
2017-01-07T05:19:21.693Z,0
2017-01-07T05:20:22.513Z,0
2017-01-07T05:21:21.689Z,0
2017-01-07T05:22:22.097Z,0
2017-01-07T05:23:22.089Z,0
2017-01-07T05:24:21.677Z,0
2017-01-07T05:25:22.085Z,0
2017-01-07T05:26:22.073Z,0
2017-01-07T05:27:22.485Z,0
2017-01-07T05:28:22.069Z,0
2017-01-07T05:29:22.469Z,0
2017-01-07T05:30:22.054Z,0
2017-01-07T05:31:22.045Z,0
2017-01-07T05:32:22.458Z,0
2017-01-07T05:33:22.029Z,0
2017-01-07T05:34:22.025Z,0
2017-01-07T05:35:22.029Z,0
2017-01-07T05:36:22.026Z,0
2017-01-07T05:37:21.605Z,0
2017-01-07T05:38:22.425Z,0
2017-01-07T05:39:21.598Z,0
2017-01-07T05:40:21.589Z,0
2017-01-07T05:41:21.990Z,0
2017-01-07T05:42:22.398Z,0
2017-01-07T05:43:21.574Z,0
2017-01-07T05:44:22.390Z,0
2017-01-07T05:45:21.970Z,0
2017-01-07T05:46:21.962Z,0
2017-01-07T05:47:21.554Z,0
2017-01-07T05:48:21.957Z,0
2017-01-07T05:49:22.358Z,0
2017-01-07T05:50:21.946Z,0
2017-01-07T05:51:22.354Z,0
2017-01-07T05:52:21.938Z,0
2017-01-07T05:53:21.922Z,0
2017-01-07T05:54:21.930Z,0
2017-01-07T05:55:22.342Z,0
2017-01-07T05:56:21.922Z,0
2017-01-07T05:57:21.914Z,0
2017-01-07T05:58:22.322Z,0
2017-01-07T05:59:22.318Z,0
2017-01-07T06:00:21.890Z,0
2017-01-07T06:01:21.894Z,0
2017-01-07T06:02:21.894Z,0
2017-01-07T06:03:21.878Z,0
2017-01-07T06:04:22.291Z,0
2017-01-07T06:05:21.455Z,0
2017-01-07T06:06:21.860Z,0
2017-01-07T06:07:22.267Z,0
2017-01-07T06:08:21.859Z,0
2017-01-07T06:09:22.259Z,0
2017-01-07T06:10:21.839Z,0
2017-01-07T06:11:21.831Z,0
2017-01-07T06:12:22.243Z,0
2017-01-07T06:13:21.823Z,0
2017-01-07T06:14:21.415Z,0
2017-01-07T06:15:21.823Z,0
2017-01-07T06:16:22.228Z,0
2017-01-07T06:17:21.815Z,0
2017-01-07T06:18:21.803Z,0
2017-01-07T06:19:21.384Z,0
2017-01-07T06:20:21.799Z,0
2017-01-07T06:21:22.196Z,0
2017-01-07T06:22:21.376Z,0
2017-01-07T06:23:21.368Z,0
2017-01-07T06:24:22.188Z,0
2017-01-07T06:25:21.348Z,0
2017-01-07T06:26:21.352Z,0
2017-01-07T06:27:20.928Z,0
2017-01-07T06:28:21.340Z,0
2017-01-07T06:29:21.749Z,0
2017-01-07T06:30:21.777Z,0
2017-01-07T06:31:21.737Z,0
2017-01-07T06:32:22.141Z,0
2017-01-07T06:33:22.141Z,0
2017-01-07T06:34:21.717Z,0
2017-01-07T06:35:21.301Z,0
2017-01-07T06:36:21.705Z,0
2017-01-07T06:37:22.117Z,0
2017-01-07T06:38:21.289Z,0
2017-01-07T06:39:21.697Z,0
2017-01-07T06:40:22.100Z,0
2017-01-07T06:41:22.096Z,0
2017-01-07T06:42:20.858Z,0
2017-01-07T06:43:21.685Z,4
2017-01-07T06:44:22.076Z,4
2017-01-07T06:45:21.248Z,0
2017-01-07T06:46:21.248Z,0
2017-01-07T06:47:21.653Z,4
2017-01-07T06:48:21.648Z,4
2017-01-07T06:49:22.056Z,4
2017-01-07T06:50:21.640Z,4
2017-01-07T06:51:21.628Z,8
2017-01-07T06:52:22.036Z,4
2017-01-07T06:53:21.356Z,8
2017-01-07T06:54:22.032Z,8
2017-01-07T06:55:21.620Z,12
2017-01-07T06:56:21.600Z,12
2017-01-07T06:57:21.608Z,16
2017-01-07T06:58:21.596Z,16
2017-01-07T06:59:21.592Z,16
2017-01-07T07:00:22.000Z,20
2017-01-07T07:01:21.996Z,20
2017-01-07T07:02:21.577Z,20
2017-01-07T07:03:21.977Z,24
2017-01-07T07:04:21.572Z,28
2017-01-07T07:05:21.976Z,32
2017-01-07T07:06:21.548Z,36
2017-01-07T07:07:21.558Z,40
2017-01-07T07:08:21.949Z,44
2017-01-07T07:09:21.545Z,48
2017-01-07T07:10:21.941Z,52
2017-01-07T07:11:21.945Z,56
2017-01-07T07:12:20.705Z,60
2017-01-07T07:13:21.929Z,64
2017-01-07T07:14:21.517Z,76
2017-01-07T07:15:21.513Z,80
2017-01-07T07:16:21.517Z,88
2017-01-07T07:17:21.929Z,96
2017-01-07T07:18:21.493Z,104
2017-01-07T07:19:21.105Z,112
2017-01-07T07:20:21.485Z,116
2017-01-07T07:21:21.481Z,124
2017-01-07T07:22:21.477Z,128
2017-01-07T07:23:21.885Z,136
2017-01-07T07:24:21.477Z,140
2017-01-07T07:25:21.045Z,140
2017-01-07T07:26:21.873Z,152
2017-01-07T07:27:21.445Z,156
2017-01-07T07:28:21.438Z,168
2017-01-07T07:29:21.441Z,180
2017-01-07T07:30:21.425Z,188
2017-01-07T07:31:21.425Z,204
2017-01-07T07:32:21.425Z,220
2017-01-07T07:33:21.413Z,240
2017-01-07T07:34:21.406Z,256
2017-01-07T07:35:20.998Z,260
2017-01-07T07:36:21.405Z,260
2017-01-07T07:37:21.806Z,252
2017-01-07T07:38:21.398Z,248
2017-01-07T07:39:21.822Z,248
2017-01-07T07:40:20.562Z,256
2017-01-07T07:41:20.970Z,276
2017-01-07T07:42:21.786Z,304
2017-01-07T07:43:21.786Z,340
2017-01-07T07:44:20.942Z,372
2017-01-07T07:45:20.530Z,404
2017-01-07T07:46:21.770Z,432
2017-01-07T07:47:21.762Z,464
2017-01-07T07:48:21.342Z,464
2017-01-07T07:49:21.338Z,476
2017-01-07T07:50:21.734Z,516
2017-01-07T07:51:21.734Z,544
2017-01-07T07:52:21.326Z,528
2017-01-07T07:53:20.902Z,524
2017-01-07T07:54:21.726Z,488
2017-01-07T07:55:21.310Z,448
2017-01-07T07:56:20.902Z,400
2017-01-07T07:57:21.296Z,368
2017-01-07T07:58:20.879Z,348
2017-01-07T07:59:21.699Z,340
2017-01-07T08:00:21.279Z,348
2017-01-07T08:01:20.866Z,360
2017-01-07T08:02:21.291Z,360
2017-01-07T08:03:21.275Z,368
2017-01-07T08:04:21.274Z,404
2017-01-07T08:05:21.675Z,464
2017-01-07T08:06:20.839Z,512
2017-01-07T08:07:20.839Z,544
2017-01-07T08:08:21.246Z,568
2017-01-07T08:09:21.646Z,592
2017-01-07T08:10:21.230Z,616
2017-01-07T08:11:21.230Z,652
2017-01-07T08:12:21.226Z,684
2017-01-07T08:13:21.634Z,708
2017-01-07T08:14:21.210Z,716
2017-01-07T08:15:21.210Z,716
2017-01-07T08:16:21.614Z,716
2017-01-07T08:17:21.610Z,716
2017-01-07T08:18:20.802Z,728
2017-01-07T08:19:21.602Z,756
2017-01-07T08:20:20.782Z,780
2017-01-07T08:21:21.594Z,768
2017-01-07T08:22:21.194Z,732
2017-01-07T08:23:21.582Z,700
2017-01-07T08:24:20.755Z,696
2017-01-07T08:25:21.166Z,712
2017-01-07T08:26:21.162Z,724
2017-01-07T08:27:21.558Z,752
2017-01-07T08:28:20.322Z,784
2017-01-07T08:29:20.726Z,824
2017-01-07T08:30:20.734Z,864
2017-01-07T08:31:21.541Z,896
2017-01-07T08:32:21.129Z,916
2017-01-07T08:33:21.533Z,924
2017-01-07T08:34:20.701Z,920
2017-01-07T08:35:21.522Z,924
2017-01-07T08:36:21.105Z,940
2017-01-07T08:37:21.517Z,964
2017-01-07T08:38:21.513Z,972
2017-01-07T08:39:21.501Z,960
2017-01-07T08:40:21.499Z,948
2017-01-07T08:41:21.081Z,940
2017-01-07T08:42:21.481Z,932
2017-01-07T08:43:21.077Z,912
2017-01-07T08:44:21.072Z,888
2017-01-07T08:45:21.064Z,880
2017-01-07T08:46:21.048Z,880
2017-01-07T08:47:20.640Z,876
2017-01-07T08:48:21.460Z,868
2017-01-07T08:49:20.627Z,872
2017-01-07T08:50:21.036Z,896
2017-01-07T08:51:33.352Z,936
2017-01-07T08:52:34.136Z,956
2017-01-07T08:53:21.396Z,956
2017-01-07T08:54:20.996Z,944
2017-01-07T08:55:21.415Z,932
2017-01-07T08:56:21.403Z,916
2017-01-07T08:57:20.995Z,880
2017-01-07T08:58:21.411Z,848
2017-01-07T08:59:20.586Z,844
2017-01-07T09:00:21.406Z,864
2017-01-07T09:01:20.978Z,912
2017-01-07T09:02:21.386Z,992
2017-01-07T09:03:20.561Z,1100
2017-01-07T09:04:21.381Z,1224
2017-01-07T09:05:20.545Z,1316
2017-01-07T09:06:21.377Z,1424
2017-01-07T09:07:20.949Z,1532
2017-01-07T09:08:21.369Z,1616
2017-01-07T09:09:20.529Z,1640
2017-01-07T09:10:20.945Z,1636
2017-01-07T09:11:20.112Z,1612
2017-01-07T09:12:20.925Z,1584
2017-01-07T09:13:21.337Z,1576
2017-01-07T09:14:20.916Z,1580
2017-01-07T09:15:20.912Z,1596
2017-01-07T09:16:20.916Z,1596
2017-01-07T09:17:21.316Z,1588
2017-01-07T09:18:20.896Z,1584
2017-01-07T09:19:21.328Z,1604
2017-01-07T09:20:20.896Z,1648
2017-01-07T09:21:21.295Z,1740
2017-01-07T09:22:20.459Z,1848
2017-01-07T09:23:20.871Z,1940
2017-01-07T09:24:21.287Z,2000
2017-01-07T09:25:21.279Z,2024
2017-01-07T09:26:20.459Z,2016
2017-01-07T09:27:21.259Z,1972
2017-01-07T09:28:20.443Z,1912
2017-01-07T09:29:20.851Z,1884
2017-01-07T09:30:20.838Z,1888
2017-01-07T09:31:20.838Z,1928
2017-01-07T09:32:20.830Z,2004
2017-01-07T09:33:20.446Z,2136
2017-01-07T09:34:21.238Z,2296
2017-01-07T09:35:20.970Z,2500
2017-01-07T09:36:20.406Z,2648
2017-01-07T09:37:20.806Z,3216
2017-01-07T09:38:21.222Z,3408
2017-01-07T09:39:20.798Z,3136
2017-01-07T09:40:21.210Z,3272
2017-01-07T09:41:20.799Z,2892
2017-01-07T09:42:20.786Z,2532
2017-01-07T09:43:21.198Z,2552
2017-01-07T09:44:20.370Z,2520
2017-01-07T09:45:21.186Z,2384
2017-01-07T09:46:20.773Z,2252
2017-01-07T09:47:20.762Z,2228
2017-01-07T09:48:21.174Z,2236
2017-01-07T09:49:21.170Z,2276
2017-01-07T09:50:21.165Z,2344
2017-01-07T09:51:21.165Z,2396
2017-01-07T09:52:21.154Z,2316
2017-01-07T09:53:20.750Z,2252
2017-01-07T09:54:20.759Z,2196
2017-01-07T09:55:20.730Z,2180
2017-01-07T09:56:21.142Z,2048
2017-01-07T09:57:20.725Z,1964
2017-01-07T09:58:20.750Z,1924
2017-01-07T09:59:20.302Z,1956
2017-01-07T10:00:20.294Z,2064
2017-01-07T10:01:20.298Z,2216
2017-01-07T10:02:20.701Z,2496
2017-01-07T10:03:19.874Z,2752
2017-01-07T10:04:20.285Z,3052
2017-01-07T10:05:20.282Z,2928
2017-01-07T10:06:21.101Z,2620
2017-01-07T10:07:21.094Z,2512
2017-01-07T10:08:20.680Z,2560
2017-01-07T10:09:20.281Z,2744
2017-01-07T10:10:20.674Z,2640
2017-01-07T10:11:21.081Z,2708
2017-01-07T10:12:20.662Z,2508
2017-01-07T10:13:21.066Z,2536
2017-01-07T10:14:20.657Z,2556
2017-01-07T10:15:21.058Z,2460
2017-01-07T10:16:20.638Z,2344
2017-01-07T10:17:20.646Z,2320
2017-01-07T10:18:21.050Z,2412
2017-01-07T10:19:21.045Z,2552
2017-01-07T10:20:20.614Z,2508
2017-01-07T10:21:20.621Z,2516
2017-01-07T10:22:21.049Z,2524
2017-01-07T10:23:20.613Z,2528
2017-01-07T10:24:21.025Z,2628
2017-01-07T10:25:20.600Z,2756
2017-01-07T10:26:20.601Z,2680
2017-01-07T10:27:21.022Z,2660
2017-01-07T10:28:20.586Z,2780
2017-01-07T10:29:20.590Z,2992
2017-01-07T10:30:20.178Z,3124
2017-01-07T10:31:20.994Z,3228
2017-01-07T10:32:20.985Z,3280
2017-01-07T10:33:20.578Z,3120
2017-01-07T10:34:20.566Z,2900
2017-01-07T10:35:20.981Z,2696
2017-01-07T10:36:20.558Z,2544
2017-01-07T10:37:20.562Z,2444
2017-01-07T10:38:20.558Z,2356
2017-01-07T10:39:20.554Z,2340
2017-01-07T10:40:20.554Z,2452
2017-01-07T10:41:20.961Z,2676
2017-01-07T10:42:20.957Z,2860
2017-01-07T10:43:19.706Z,2940
2017-01-07T10:44:20.942Z,2976
2017-01-07T10:45:20.118Z,2988
2017-01-07T10:46:20.938Z,2976
2017-01-07T10:47:20.519Z,2928
2017-01-07T10:48:20.519Z,2892
2017-01-07T10:49:20.107Z,2928
2017-01-07T10:50:20.519Z,2964
2017-01-07T10:51:20.916Z,2960
2017-01-07T10:52:20.915Z,2984
2017-01-07T10:53:20.503Z,3080
2017-01-07T10:54:20.907Z,3216
2017-01-07T10:55:20.895Z,3288
2017-01-07T10:56:20.484Z,3268
2017-01-07T10:57:20.480Z,3180
2017-01-07T10:58:20.892Z,3100
2017-01-07T10:59:20.896Z,3060
2017-01-07T11:00:20.484Z,3020
2017-01-07T11:01:20.885Z,2992
2017-01-07T11:02:20.052Z,2940
2017-01-07T11:03:20.457Z,2836
2017-01-07T11:04:20.873Z,2724
2017-01-07T11:05:20.869Z,2684
2017-01-07T11:06:20.857Z,2676
2017-01-07T11:07:20.862Z,2672
2017-01-07T11:08:20.857Z,2676
2017-01-07T11:09:20.858Z,2696
2017-01-07T11:10:20.442Z,2684
2017-01-07T11:11:20.442Z,2684
2017-01-07T11:12:19.610Z,2768
2017-01-07T11:13:20.430Z,2868
2017-01-07T11:14:20.427Z,2944
2017-01-07T11:15:20.422Z,3024
2017-01-07T11:16:20.415Z,3096
2017-01-07T11:17:20.831Z,3088
2017-01-07T11:18:20.415Z,3024
2017-01-07T11:19:20.416Z,2968
2017-01-07T11:20:20.819Z,2948
2017-01-07T11:21:20.807Z,2976
2017-01-07T11:22:20.397Z,3032
2017-01-07T11:23:20.403Z,3072
2017-01-07T11:24:20.391Z,3084
2017-01-07T11:25:20.391Z,3076
2017-01-07T11:26:20.388Z,3048
2017-01-07T11:27:20.388Z,3004
2017-01-07T11:28:20.796Z,2960
2017-01-07T11:29:20.376Z,2972
2017-01-07T11:30:20.792Z,3068
2017-01-07T11:31:20.776Z,3156
2017-01-07T11:32:19.952Z,3184
2017-01-07T11:33:19.949Z,3164
2017-01-07T11:34:20.769Z,3144
2017-01-07T11:35:20.356Z,3128
2017-01-07T11:36:20.765Z,3132
2017-01-07T11:37:19.937Z,3184
2017-01-07T11:38:19.937Z,3252
2017-01-07T11:39:20.749Z,3328
2017-01-07T11:40:20.341Z,3356
2017-01-07T11:41:20.745Z,3352
2017-01-07T11:42:20.325Z,3316
2017-01-07T11:43:20.745Z,3260
2017-01-07T11:44:20.322Z,3168
2017-01-07T11:45:19.910Z,3100
2017-01-07T11:46:20.727Z,3064
2017-01-07T11:47:20.315Z,3044
2017-01-07T11:48:20.722Z,3016
2017-01-07T11:49:20.710Z,3004
2017-01-07T11:50:20.714Z,3020
2017-01-07T11:51:20.714Z,3060
2017-01-07T11:52:20.294Z,3084
2017-01-07T11:53:19.882Z,3120
2017-01-07T11:54:20.294Z,3172
2017-01-07T11:55:19.711Z,3188
2017-01-07T11:56:20.695Z,3200
2017-01-07T11:57:19.871Z,3196
2017-01-07T11:58:20.679Z,3224
2017-01-07T11:59:20.275Z,3264
2017-01-07T12:00:20.684Z,3324
2017-01-07T12:01:20.276Z,3396
2017-01-07T12:02:20.263Z,3408
2017-01-07T12:03:19.856Z,3360
2017-01-07T12:04:20.260Z,3348
2017-01-07T12:05:20.276Z,3336
2017-01-07T12:06:20.248Z,3304
2017-01-07T12:07:20.252Z,3276
2017-01-07T12:08:20.660Z,3292
2017-01-07T12:09:20.245Z,3288
2017-01-07T12:10:19.841Z,3276
2017-01-07T12:11:19.829Z,3276
2017-01-07T12:12:20.656Z,3336
2017-01-07T12:13:20.229Z,3396
2017-01-07T12:14:19.818Z,3388
2017-01-07T12:15:20.229Z,3376
2017-01-07T12:16:19.814Z,3352
2017-01-07T12:17:20.634Z,3312
2017-01-07T12:18:20.666Z,3240
2017-01-07T12:19:20.626Z,3184
2017-01-07T12:20:20.623Z,3144
2017-01-07T12:21:20.203Z,3128
2017-01-07T12:22:20.619Z,3120
2017-01-07T12:23:20.619Z,3152
2017-01-07T12:24:20.615Z,3224
2017-01-07T12:25:20.191Z,3264
2017-01-07T12:26:20.199Z,3288
2017-01-07T12:27:20.191Z,3332
2017-01-07T12:28:20.599Z,3344
2017-01-07T12:29:19.772Z,3368
2017-01-07T12:30:20.619Z,3388
2017-01-07T12:31:20.203Z,3364
2017-01-07T12:32:20.172Z,3332
2017-01-07T12:33:20.164Z,3276
2017-01-07T12:34:20.576Z,3212
2017-01-07T12:35:20.584Z,3136
2017-01-07T12:36:20.164Z,3028
2017-01-07T12:37:20.569Z,2996
2017-01-07T12:38:20.164Z,3004
2017-01-07T12:39:20.157Z,2980
2017-01-07T12:40:19.745Z,2948
2017-01-07T12:41:20.573Z,2928
2017-01-07T12:42:20.153Z,2924
2017-01-07T12:43:20.145Z,2888
2017-01-07T12:44:19.733Z,2832
2017-01-07T12:45:20.553Z,2748
2017-01-07T12:46:20.137Z,2600
2017-01-07T12:47:19.309Z,2448
2017-01-07T12:48:20.138Z,2376
2017-01-07T12:49:20.122Z,2400
2017-01-07T12:50:20.129Z,2428
2017-01-07T12:51:20.530Z,2504
2017-01-07T12:52:20.114Z,2588
2017-01-07T12:53:20.530Z,2656
2017-01-07T12:54:19.710Z,2652
2017-01-07T12:55:20.515Z,2660
2017-01-07T12:56:20.522Z,2688
2017-01-07T12:57:20.104Z,2700
2017-01-07T12:58:20.510Z,2692
2017-01-07T12:59:20.099Z,2684
2017-01-07T13:00:20.091Z,2696
2017-01-07T13:01:19.703Z,2708
2017-01-07T13:02:20.091Z,2720
2017-01-07T13:03:20.487Z,2704
2017-01-07T13:04:20.087Z,2684
2017-01-07T13:05:20.075Z,2648
2017-01-07T13:06:20.083Z,2628
2017-01-07T13:07:20.487Z,2608
2017-01-07T13:08:20.067Z,2584
2017-01-07T13:09:20.483Z,2556
2017-01-07T13:10:20.067Z,2528
2017-01-07T13:11:20.067Z,2492
2017-01-07T13:12:20.464Z,2480
2017-01-07T13:13:20.060Z,2496
2017-01-07T13:14:20.464Z,2520
2017-01-07T13:15:20.464Z,2528
2017-01-07T13:16:20.460Z,2524
2017-01-07T13:17:20.460Z,2528
2017-01-07T13:18:20.456Z,2540
2017-01-07T13:19:20.032Z,2552
2017-01-07T13:20:20.448Z,2560
2017-01-07T13:21:20.453Z,2572
2017-01-07T13:22:19.245Z,2580
2017-01-07T13:23:20.457Z,2592
2017-01-07T13:24:19.617Z,2596
2017-01-07T13:25:20.433Z,2576
2017-01-07T13:26:19.613Z,2552
2017-01-07T13:27:20.045Z,2536
2017-01-07T13:28:19.609Z,2524
2017-01-07T13:29:20.013Z,2528
2017-01-07T13:30:19.606Z,2520
2017-01-07T13:31:20.010Z,2484
2017-01-07T13:32:20.414Z,2468
2017-01-07T13:33:20.014Z,2464
2017-01-07T13:34:20.006Z,2456
2017-01-07T13:35:20.406Z,2444
2017-01-07T13:36:19.998Z,2452
2017-01-07T13:37:19.994Z,2460
2017-01-07T13:38:20.402Z,2468
2017-01-07T13:39:19.990Z,2472
2017-01-07T13:40:20.390Z,2456
2017-01-07T13:41:20.394Z,2416
2017-01-07T13:42:19.566Z,2384
2017-01-07T13:43:20.379Z,2376
2017-01-07T13:44:20.367Z,2384
2017-01-07T13:45:19.566Z,2388
2017-01-07T13:46:20.375Z,2384
2017-01-07T13:47:19.963Z,2368
2017-01-07T13:48:19.959Z,2352
2017-01-07T13:49:19.967Z,2292
2017-01-07T13:50:19.947Z,2164
2017-01-07T13:51:20.363Z,2000
2017-01-07T13:52:20.355Z,1864
2017-01-07T13:53:20.351Z,1804
2017-01-07T13:54:20.357Z,1832
2017-01-07T13:55:19.931Z,1904
2017-01-07T13:56:19.928Z,1944
2017-01-07T13:57:19.936Z,1916
2017-01-07T13:58:20.344Z,1876
2017-01-07T13:59:19.928Z,1828
2017-01-07T14:00:20.072Z,1760
2017-01-07T14:01:19.920Z,1684
2017-01-07T14:02:19.920Z,1620
2017-01-07T14:03:20.328Z,1600
2017-01-07T14:04:19.504Z,1608
2017-01-07T14:05:19.908Z,1608